| time (UTC) | temp F | wind direction | speed knots | gust knots | rain 1hr in | rain 24hr in | rain mn in | humidity % | barometer mb |
| 20260505205024 | 45 | 19 | 2.6 | 7.8 | 0.00 | 0.00 | 0.00 | 80 | 1012.3 |
| 20260505204020 | 45 | 19 | 2.6 | 7.8 | 0.00 | 0.00 | 0.00 | 79 | 1012.3 |
| 20260505203016 | 46 | 19 | 2.6 | 7.8 | 0.00 | 0.00 | 0.00 | 78 | 1012.2 |
| 20260505202032 | 46 | 19 | 2.6 | 7.8 | 0.00 | 0.00 | 0.00 | 77 | 1012.2 |
| 20260505201028 | 46 | 19 | 2.6 | 7.8 | 0.00 | 0.00 | 0.00 | 77 | 1012.3 |
| 20260505200024 | 47 | 19 | 2.6 | 7.8 | 0.00 | 0.00 | 0.00 | 76 | 1012.1 |
| 20260505195020 | 47 | 19 | 2.6 | 7.8 | 0.00 | 0.00 | 0.00 | 76 | 1012.1 |
| 20260505194016 | 47 | 19 | 2.6 | 7.8 | 0.00 | 0.00 | 0.00 | 76 | 1012.1 |
| 20260505193032 | 48 | 19 | 2.6 | 7.8 | 0.00 | 0.00 | 0.00 | 77 | 1012.0 |
| 20260505192028 | 48 | 19 | 2.6 | 7.8 | 0.00 | 0.00 | 0.00 | 76 | 1011.9 |
| 20260505191024 | 49 | 19 | 2.6 | 7.8 | 0.00 | 0.00 | 0.00 | 74 | 1011.9 |
| 20260505190020 | 49 | 19 | 2.6 | 7.8 | 0.00 | 0.00 | 0.00 | 73 | 1011.8 |
| 20260505185016 | 50 | 19 | 2.6 | 7.8 | 0.00 | 0.00 | 0.00 | 71 | 1011.7 |
| 20260505184032 | 51 | 19 | 2.6 | 7.8 | 0.00 | 0.00 | 0.00 | 69 | 1011.8 |
| 20260505183028 | 53 | 19 | 2.6 | 7.8 | 0.00 | 0.00 | 0.00 | 65 | 1011.7 |
| 20260505182025 | 55 | 19 | 2.6 | 7.8 | 0.00 | 0.00 | 0.00 | 62 | 1011.9 |
| 20260505181021 | 55 | 19 | 2.6 | 7.8 | 0.00 | 0.00 | 0.00 | 61 | 1011.8 |
| 20260505180017 | 56 | 19 | 2.6 | 7.8 | 0.00 | 0.00 | 0.00 | 60 | 1011.8 |
| 20260505175033 | 56 | 19 | 2.6 | 7.8 | 0.00 | 0.00 | 0.00 | 58 | 1011.6 |
| 20260505174029 | 58 | 19 | 2.6 | 7.8 | 0.00 | 0.00 | 0.00 | 54 | 1011.7 |
| 20260505173026 | 58 | 19 | 2.6 | 7.8 | 0.00 | 0.00 | 0.00 | 55 | 1011.6 |
| 20260505172022 | 57 | 19 | 2.6 | 7.8 | 0.00 | 0.00 | 0.00 | 55 | 1011.7 |
| 20260505171018 | 57 | 19 | 2.6 | 7.8 | 0.00 | 0.00 | 0.00 | 56 | 1011.7 |
| 20260505170034 | 58 | 19 | 2.6 | 7.8 | 0.00 | 0.00 | 0.00 | 56 | 1011.7 |
| 20260505165030 | 58 | 19 | 2.6 | 7.8 | 0.00 | 0.00 | 0.00 | 55 | 1011.8 |
| 20260505164026 | 60 | 19 | 2.6 | 7.8 | 0.00 | 0.00 | 0.00 | 51 | 1011.6 |
| 20260505163022 | 60 | 19 | 2.6 | 7.8 | 0.00 | 0.00 | 0.00 | 49 | 1011.7 |
| 20260505162018 | 60 | 19 | 2.6 | 7.8 | 0.00 | 0.00 | 0.00 | 48 | 1011.7 |
| 20260505161035 | 60 | 19 | 2.6 | 7.8 | 0.00 | 0.00 | 0.00 | 50 | 1011.9 |
| 20260505153019 | 60 | 19 | 2.6 | 7.8 | 0.00 | 0.00 | 0.00 | 50 | 1011.7 |
| 20260505152035 | 60 | 19 | 2.6 | 7.8 | 0.00 | 0.00 | 0.00 | 51 | 1011.8 |
| 20260505151031 | 60 | 19 | 2.6 | 7.8 | 0.00 | 0.00 | 0.00 | 51 | 1011.7 |
| 20260505125017 | 55 | 19 | 2.6 | 7.8 | 0.00 | 0.00 | 0.00 | 61 | 1012.0 |
| 20260505124033 | 56 | 19 | 2.6 | 7.8 | 0.00 | 0.00 | 0.00 | 60 | 1012.0 |
| 20260505123029 | 56 | 19 | 2.6 | 7.8 | 0.00 | 0.00 | 0.00 | 60 | 1012.0 |
| 20260505122025 | 56 | 19 | 2.6 | 7.8 | 0.00 | 0.00 | 0.00 | 60 | 1012.0 |
| 20260505121021 | 57 | 19 | 2.6 | 7.8 | 0.00 | 0.00 | 0.00 | 60 | 1011.8 |
| 20260505120017 | 57 | 19 | 2.6 | 7.8 | 0.00 | 0.00 | 0.00 | 57 | 1011.9 |
| 20260505115033 | 55 | 19 | 2.6 | 7.8 | 0.00 | 0.00 | 0.00 | 60 | 1011.9 |
| 20260505114029 | 56 | 19 | 2.6 | 7.8 | 0.00 | 0.00 | 0.00 | 64 | 1011.9 |
| 20260505113025 | 56 | 19 | 2.6 | 7.8 | 0.00 | 0.00 | 0.00 | 64 | 1012.1 |
| 20260505112021 | 54 | 19 | 2.6 | 7.8 | 0.00 | 0.00 | 0.00 | 69 | 1012.1 |
| 20260505111017 | 54 | 19 | 2.6 | 7.8 | 0.00 | 0.00 | 0.00 | 67 | 1012.2 |
| 20260505102018 | 55 | 19 | 2.6 | 7.8 | 0.00 | 0.00 | 0.00 | 60 | 1012.4 |
| 20260505101034 | 55 | 19 | 2.6 | 7.8 | 0.00 | 0.00 | 0.00 | 60 | 1012.5 |
| 20260505100030 | 54 | 19 | 2.6 | 7.8 | 0.00 | 0.00 | 0.00 | 62 | 1012.5 |
| 20260505095026 | 55 | 19 | 2.6 | 7.8 | 0.00 | 0.00 | 0.00 | 65 | 1012.5 |
| 20260505094022 | 55 | 19 | 2.6 | 7.8 | 0.00 | 0.00 | 0.00 | 64 | 1012.6 |
| 20260505093018 | 54 | 19 | 2.6 | 7.8 | 0.00 | 0.00 | 0.00 | 67 | 1012.5 |
| 20260505092034 | 53 | 19 | 2.6 | 7.8 | 0.00 | 0.00 | 0.00 | 68 | 1012.6 |
| 20260505091030 | 52 | 19 | 2.6 | 7.8 | 0.00 | 0.00 | 0.00 | 70 | 1012.5 |
| 20260505090026 | 52 | 19 | 2.6 | 7.8 | 0.00 | 0.00 | 0.00 | 71 | 1012.5 |
| 20260505085022 | 52 | 19 | 2.6 | 7.8 | 0.00 | 0.00 | 0.00 | 71 | 1012.7 |
| 20260505084018 | 52 | 19 | 2.6 | 7.8 | 0.00 | 0.00 | 0.00 | 71 | 1012.6 |
| 20260505083034 | 53 | 19 | 2.6 | 7.8 | 0.00 | 0.00 | 0.00 | 71 | 1012.6 |
| 20260505082030 | 52 | 19 | 2.6 | 7.8 | 0.00 | 0.00 | 0.00 | 73 | 1012.7 |
| 20260505081026 | 51 | 19 | 2.6 | 7.8 | 0.00 | 0.00 | 0.00 | 74 | 1012.5 |
| 20260505080022 | 51 | 19 | 2.6 | 7.8 | 0.00 | 0.00 | 0.00 | 78 | 1012.5 |
| 20260505075019 | 49 | 19 | 2.6 | 7.8 | 0.00 | 0.00 | 0.00 | 80 | 1012.6 |
| 20260505074035 | 49 | 19 | 2.6 | 7.8 | 0.00 | 0.00 | 0.00 | 81 | 1012.7 |
| 20260505073031 | 49 | 19 | 2.6 | 7.8 | 0.00 | 0.00 | 0.00 | 82 | 1012.7 |
| 20260505072027 | 49 | 19 | 2.6 | 7.8 | 0.00 | 0.00 | 0.00 | 81 | 1012.7 |
| 20260505071023 | 49 | 19 | 2.6 | 7.8 | 0.00 | 0.00 | 0.00 | 83 | 1012.7 |
| 20260505070019 | 48 | 19 | 2.6 | 7.8 | 0.00 | 0.00 | 0.00 | 82 | 1012.8 |
| 20260505065016 | 48 | 19 | 2.6 | 7.8 | 0.00 | 0.00 | 0.00 | 83 | 1012.8 |
| 20260505064031 | 48 | 19 | 2.6 | 7.8 | 0.00 | 0.00 | 0.00 | 84 | 1012.8 |
| 20260505063027 | 48 | 19 | 2.6 | 7.8 | 0.00 | 0.00 | 0.00 | 86 | 1012.7 |
| 20260505062024 | 48 | 19 | 2.6 | 7.8 | 0.00 | 0.00 | 0.00 | 88 | 1012.7 |
| 20260505061020 | 47 | 19 | 2.6 | 7.8 | 0.00 | 0.00 | 0.00 | 89 | 1012.7 |
| 20260505060016 | 46 | 19 | 2.6 | 7.8 | 0.00 | 0.00 | 0.00 | 89 | 1012.7 |
| 20260505055032 | 46 | 19 | 2.6 | 7.8 | 0.00 | 0.00 | 0.00 | 89 | 1012.6 |
| 20260505054028 | 46 | 19 | 2.6 | 7.8 | 0.00 | 0.00 | 0.00 | 90 | 1012.6 |
| 20260505053024 | 45 | 19 | 2.6 | 7.8 | 0.00 | 0.00 | 0.00 | 91 | 1012.6 |
| 20260505052020 | 44 | 19 | 2.6 | 7.8 | 0.00 | 0.00 | 0.00 | 92 | 1012.5 |
| 20260505051016 | 43 | 19 | 2.6 | 7.8 | 0.00 | 0.00 | 0.00 | 93 | 1012.5 |
| 20260505041032 | 42 | 19 | 2.6 | 7.8 | 0.00 | 0.00 | 0.00 | 93 | 1012.4 |
| 20260505040028 | 41 | 19 | 2.6 | 7.8 | 0.00 | 0.00 | 0.00 | 93 | 1012.5 |
| 20260505035024 | 41 | 19 | 2.6 | 7.8 | 0.00 | 0.00 | 0.00 | 93 | 1012.5 |
| 20260505034019 | 41 | 19 | 2.6 | 7.8 | 0.00 | 0.00 | 0.00 | 93 | 1012.6 |
| 20260505033015 | 41 | 19 | 2.6 | 7.8 | 0.00 | 0.00 | 0.00 | 93 | 1012.6 |
| 20260505032032 | 41 | 19 | 2.6 | 7.8 | 0.00 | 0.00 | 0.00 | 93 | 1012.6 |
| 20260505031027 | 41 | 19 | 2.6 | 7.8 | 0.00 | 0.00 | 0.00 | 93 | 1012.6 |
| 20260505030024 | 42 | 19 | 2.6 | 7.8 | 0.00 | 0.00 | 0.00 | 92 | 1012.6 |
| 20260505025020 | 42 | 19 | 2.6 | 7.8 | 0.00 | 0.00 | 0.00 | 92 | 1012.7 |
| 20260505024016 | 42 | 19 | 2.6 | 7.8 | 0.00 | 0.00 | 0.00 | 92 | 1012.7 |
| 20260505023032 | 42 | 19 | 2.6 | 7.8 | 0.00 | 0.00 | 0.00 | 92 | 1012.8 |
| 20260505022028 | 42 | 19 | 2.6 | 7.8 | 0.00 | 0.00 | 0.00 | 92 | 1012.9 |
| 20260505021024 | 42 | 19 | 2.6 | 7.8 | 0.00 | 0.00 | 0.00 | 92 | 1012.8 |
| 20260505020020 | 42 | 19 | 2.6 | 7.8 | 0.00 | 0.00 | 0.00 | 92 | 1013.0 |
| 20260505015016 | 42 | 19 | 2.6 | 7.8 | 0.00 | 0.00 | 0.00 | 91 | 1013.0 |
| 20260505014033 | 42 | 19 | 2.6 | 7.8 | 0.00 | 0.00 | 0.00 | 91 | 1013.1 |
| 20260505013029 | 43 | 19 | 2.6 | 7.8 | 0.00 | 0.00 | 0.00 | 91 | 1013.2 |
| 20260505012025 | 42 | 19 | 2.6 | 7.8 | 0.00 | 0.00 | 0.00 | 91 | 1013.2 |
| 20260505011021 | 42 | 19 | 2.6 | 7.8 | 0.00 | 0.01 | 0.00 | 92 | 1013.2 |
| 20260505010017 | 42 | 19 | 2.6 | 7.8 | 0.00 | 0.01 | 0.00 | 91 | 1013.3 |
| 20260505005033 | 42 | 19 | 2.6 | 7.8 | 0.00 | 0.01 | 0.00 | 91 | 1013.4 |
| 20260505004029 | 42 | 19 | 2.6 | 7.8 | 0.00 | 0.01 | 0.00 | 91 | 1013.5 |
| 20260505003025 | 42 | 19 | 2.6 | 7.8 | 0.00 | 0.01 | 0.00 | 91 | 1013.4 |
| 20260505002021 | 42 | 19 | 2.6 | 7.8 | 0.00 | 0.01 | 0.00 | 91 | 1013.4 |
| 20260505001017 | 42 | 19 | 2.6 | 7.8 | 0.00 | 0.02 | 0.00 | 91 | 1013.5 |
| 20260505000033 | 42 | 19 | 2.6 | 7.8 | 0.00 | 0.02 | 0.00 | 91 | 1013.6 |
| 20260504235030 | 42 | 19 | 2.6 | 7.8 | 0.00 | 0.03 | 0.00 | 91 | 1013.5 |
| 20260504234026 | 42 | 19 | 2.6 | 7.8 | 0.00 | 0.04 | 0.00 | 91 | 1013.5 |
| 20260504233022 | 42 | 19 | 2.6 | 7.8 | 0.00 | 0.04 | 0.00 | 90 | 1013.6 |
| 20260504232018 | 43 | 19 | 2.6 | 7.8 | 0.00 | 0.04 | 0.00 | 90 | 1013.6 |
| 20260504231034 | 43 | 19 | 2.6 | 7.8 | 0.00 | 0.04 | 0.00 | 90 | 1013.5 |
| 20260504230030 | 43 | 19 | 2.6 | 7.8 | 0.00 | 0.04 | 0.00 | 90 | 1013.6 |
| 20260504225026 | 43 | 19 | 2.6 | 7.8 | 0.00 | 0.04 | 0.00 | 90 | 1013.6 |
| 20260504224022 | 43 | 19 | 2.6 | 7.8 | 0.00 | 0.04 | 0.00 | 90 | 1013.6 |
| 20260504223019 | 43 | 19 | 2.6 | 7.8 | 0.00 | 0.04 | 0.00 | 90 | 1013.7 |
| 20260504222034 | 43 | 19 | 2.6 | 7.8 | 0.00 | 0.05 | 0.00 | 89 | 1013.7 |
| 20260504221030 | 43 | 19 | 2.6 | 7.8 | 0.00 | 0.05 | 0.00 | 89 | 1013.5 |
| 20260504220026 | 43 | 19 | 2.6 | 7.8 | 0.00 | 0.06 | 0.06 | 89 | 1013.6 |
| 20260504215023 | 43 | 19 | 2.6 | 7.8 | 0.00 | 0.08 | 0.06 | 89 | 1013.6 |
| 20260504214019 | 44 | 19 | 2.6 | 7.8 | 0.00 | 0.10 | 0.06 | 88 | 1013.6 |
| 20260504213035 | 44 | 19 | 2.6 | 7.8 | 0.00 | 0.11 | 0.06 | 88 | 1013.7 |
| 20260504212031 | 44 | 19 | 2.6 | 7.8 | 0.00 | 0.12 | 0.06 | 88 | 1013.6 |
| 20260504211027 | 44 | 19 | 2.6 | 7.8 | 0.00 | 0.13 | 0.06 | 88 | 1013.7 |
| 20260504210023 | 44 | 19 | 2.6 | 7.8 | 0.00 | 0.14 | 0.06 | 88 | 1013.7 |